Time;durP1;ratioP1;P1;durP2;ratioP2;P2;SDS_P1;SDS_P2;PMS_P1;PMS_P2;Temp;Humidity;BMP_temperature;BMP_pressure;BME280_temperature;BME280_humidity;BME280_pressure;Samples;Min_cycle;Max_cycle;Signal;HPM_P1;HPM_P2
2022/10/29 00:01:56;;;;;;;52.53;9.83;;;;;;;10.40;77.70;99475.73;2171572;81;20902;-82
2022/10/29 00:05:15;;;;;;;21.10;9.03;;;;;;;10.10;78.76;99477.14;2171753;82;21032;-83
2022/10/29 00:08:33;;;;;;;12.78;8.48;;;;;;;9.90;80.75;99479.27;2171808;82;21122;-83
2022/10/29 00:11:34;;;;;;;14.83;8.50;;;;;;;9.76;81.53;99483.69;2172343;81;21347;-82
2022/10/29 00:14:34;;;;;;;18.20;9.30;;;;;;;9.60;81.90;99480.23;2172702;81;20991;-82
2022/10/29 00:17:35;;;;;;;20.10;8.90;;;;;;;9.46;82.44;99469.41;2170808;81;20968;-82
2022/10/29 00:20:35;;;;;;;13.97;8.80;;;;;;;9.39;83.60;99469.67;2170572;81;21345;-83
2022/10/29 00:23:35;;;;;;;13.07;8.67;;;;;;;9.38;84.53;99474.84;2172324;81;20948;-82
2022/10/29 00:26:54;;;;;;;14.67;8.47;;;;;;;9.37;85.12;99476.98;2170516;82;20985;-83
2022/10/29 00:29:55;;;;;;;16.07;8.53;;;;;;;9.35;85.57;99469.55;2171966;81;20965;-83
2022/10/29 00:32:55;;;;;;;43.20;10.33;;;;;;;9.34;86.00;99460.86;2171653;81;20910;-83
2022/10/29 00:36:14;;;;;;;23.63;8.60;;;;;;;9.33;86.61;99463.42;2170494;82;21100;-82
2022/10/29 00:39:14;;;;;;;77.40;11.57;;;;;;;9.30;86.83;99466.83;2170772;81;20981;-83
2022/10/29 00:42:15;;;;;;;54.30;10.73;;;;;;;9.27;87.15;99457.63;2171866;81;20941;-82
2022/10/29 00:45:15;;;;;;;23.80;8.53;;;;;;;9.25;87.55;99454.09;2172345;81;21316;-82
2022/10/29 00:48:16;;;;;;;20.43;9.33;;;;;;;9.22;88.12;99447.50;2171135;81;20993;-82
2022/10/29 00:51:34;;;;;;;18.23;8.80;;;;;;;9.18;88.39;99442.64;2163159;82;21388;-83
2022/10/29 00:54:35;;;;;;;33.10;9.97;;;;;;;9.18;88.70;99448.27;2180116;81;21052;-83
2022/10/29 00:57:35;;;;;;;14.50;8.53;;;;;;;9.16;89.35;99447.34;2180538;82;21016;-82
2022/10/29 01:00:54;;;;;;;20.53;8.30;;;;;;;9.13;89.41;99444.23;2180123;82;21059;-82
2022/10/29 01:03:55;;;;;;;15.17;8.63;;;;;;;9.09;89.43;99442.39;2180486;82;20937;-82
2022/10/29 01:06:55;;;;;;;23.70;9.33;;;;;;;9.06;89.64;99442.72;2173636;81;21312;-82
2022/10/29 01:09:55;;;;;;;32.97;9.37;;;;;;;9.04;90.00;99433.98;2170444;81;20976;-82
2022/10/29 01:12:56;;;;;;;17.07;8.50;;;;;;;9.01;90.06;99431.30;2171690;81;20910;-82
2022/10/29 01:15:56;;;;;;;22.93;8.97;;;;;;;9.00;90.19;99425.62;2172345;81;20937;-82
2022/10/29 01:18:57;;;;;;;14.53;7.90;;;;;;;8.98;90.50;99424.70;2170688;81;21420;-82
2022/10/29 01:22:16;;;;;;;15.13;8.97;;;;;;;8.94;90.41;99427.23;2170897;82;20985;-81
2022/10/29 01:25:16;;;;;;;16.50;8.40;;;;;;;8.91;90.35;99420.64;2172116;81;20989;-82
2022/10/29 01:28:16;;;;;;;18.50;8.53;;;;;;;8.87;90.36;99420.09;2170407;81;20961;-81
2022/10/29 01:31:18;;;;;;;25.60;9.80;;;;;;;8.86;90.69;99424.83;2171914;81;20941;-82
2022/10/29 01:34:17;;;;;;;14.93;8.77;;;;;;;8.83;90.78;99419.96;2171886;81;21365;-81
2022/10/29 01:37:18;;;;;;;11.33;8.50;;;;;;;8.80;90.50;99425.97;2171271;81;21048;-82
2022/10/29 01:40:18;;;;;;;27.77;8.57;;;;;;;8.76;90.66;99433.23;2170460;81;20941;-81
2022/10/29 01:43:18;;;;;;;30.77;8.77;;;;;;;8.74;90.82;99424.48;2170077;80;21357;-81
2022/10/29 01:46:37;;;;;;;12.80;8.00;;;;;;;8.75;91.21;99420.17;2172105;82;21080;-82
2022/10/29 01:49:38;;;;;;;16.33;9.30;;;;;;;8.73;91.41;99421.84;2171242;81;21388;-82
2022/10/29 01:52:38;;;;;;;82.90;10.20;;;;;;;8.69;91.35;99423.48;2171213;81;20902;-82
2022/10/29 01:55:39;;;;;;;22.40;8.63;;;;;;;8.70;91.55;99424.36;2170749;81;20905;-82
2022/10/29 01:58:40;;;;;;;12.03;7.97;;;;;;;8.71;91.84;99423.10;2171404;81;21401;-82
2022/10/29 02:01:39;;;;;;;51.63;11.13;;;;;;;8.70;91.76;99421.34;2171419;81;20972;-82
2022/10/29 02:04:58;;;;;;;26.60;9.97;;;;;;;8.68;91.74;99413.91;2170118;82;21345;-82
2022/10/29 02:07:59;;;;;;;9.63;7.30;;;;;;;9.79;100.00;99407.73;2171451;81;21104;-81
2022/10/29 02:10:59;;;;;;;20.77;7.67;;;;;;;12.98;100.00;99403.00;2170848;81;20961;-84
2022/10/29 02:14:18;;;;;;;15.68;7.20;;;;;;;15.15;99.98;99394.55;2172504;82;20973;-82
2022/10/29 02:17:18;;;;;;;22.07;7.05;;;;;;;14.84;81.93;99390.08;2172859;81;21009;-83
2022/10/29 02:20:19;;;;;;;35.80;7.67;;;;;;;13.61;79.11;99396.69;2173549;81;20989;-82
2022/10/29 02:23:19;;;;;;;12.43;5.92;;;;;;;12.87;80.09;99400.27;2172128;81;20926;-83
2022/10/29 02:26:20;;;;;;;11.95;6.97;;;;;;;12.41;79.61;99402.75;2172328;81;20937;-83
2022/10/29 02:29:38;;;;;;;12.65;6.62;;;;;;;12.07;79.63;99406.59;2171066;82;21048;-83
2022/10/29 02:32:39;;;;;;;38.33;8.55;;;;;;;11.72;79.92;99404.72;2172319;81;20937;-83
2022/10/29 02:35:39;;;;;;;9.75;6.67;;;;;;;11.64;88.53;99394.56;2171158;81;20928;-83
2022/10/29 02:38:40;;;;;;;60.25;9.38;;;;;;;14.09;96.83;99389.65;2170808;81;20969;-83
2022/10/29 02:41:40;;;;;;;11.93;7.17;;;;;;;16.10;89.97;99378.39;2171172;81;20941;-83
2022/10/29 02:44:40;;;;;;;13.18;6.50;;;;;;;17.35;82.55;99379.69;2171696;81;20949;-83
2022/10/29 02:47:41;;;;;;;16.12;6.95;;;;;;;18.19;77.83;99380.31;2171623;81;20958;-82
2022/10/29 02:50:41;;;;;;;27.45;7.87;;;;;;;18.71;74.31;99372.73;2172411;81;20976;-83
2022/10/29 02:53:42;;;;;;;11.65;6.15;;;;;;;19.07;71.73;99381.95;2171023;81;21388;-83
2022/10/29 02:57:01;;;;;;;14.70;7.40;;;;;;;19.34;70.25;99384.67;2172732;82;21495;-83
2022/10/29 03:00:20;;;;;;;14.30;6.90;;;;;;;19.45;67.97;99381.86;2166601;82;20977;-83
2022/10/29 03:03:20;;;;;;;19.65;8.05;;;;;;;19.62;65.98;99372.79;2178062;81;20973;-84
2022/10/29 03:06:20;;;;;;;21.50;7.60;;;;;;;19.75;65.28;99369.94;2172016;81;20948;-84
2022/10/29 03:09:21;;;;;;;13.72;7.97;;;;;;;19.80;63.42;99364.11;2171097;81;21004;-83
2022/10/29 03:12:21;;;;;;;15.08;6.58;;;;;;;19.79;62.16;99363.69;2171737;81;20933;-82
2022/10/29 03:15:22;;;;;;;16.30;6.67;;;;;;;19.03;57.44;99359.95;2171609;81;20929;-82
2022/10/29 03:18:22;;;;;;;17.48;7.22;;;;;;;16.72;57.32;99368.16;2170231;81;20988;-82
2022/10/29 03:21:22;;;;;;;13.25;7.50;;;;;;;14.91;59.38;99372.14;2171197;81;20937;-83
2022/10/29 03:24:23;;;;;;;21.30;8.50;;;;;;;13.55;61.92;99369.98;2173142;81;20960;-83
2022/10/29 03:27:42;;;;;;;14.40;6.97;;;;;;;12.54;64.14;99379.79;2172279;82;21048;-82
2022/10/29 03:30:42;;;;;;;12.18;7.12;;;;;;;11.69;66.76;99378.52;2171780;81;20956;-83
2022/10/29 03:33:43;;;;;;;17.48;8.20;;;;;;;11.08;68.82;99373.53;2171698;81;21021;-83
2022/10/29 03:36:43;;;;;;;16.90;8.53;;;;;;;10.65;71.52;99372.71;2170388;81;20977;-83
2022/10/29 03:39:43;;;;;;;12.07;7.25;;;;;;;10.33;72.74;99385.07;2169353;81;21063;-82
2022/10/29 03:42:44;;;;;;;12.28;8.08;;;;;;;10.02;73.74;99387.40;2170152;81;20968;-84
2022/10/29 03:46:03;;;;;;;18.35;9.23;;;;;;;9.76;75.28;99388.52;2170911;82;21078;-82
2022/10/29 03:49:22;;;;;;;18.90;8.40;;;;;;;9.59;77.08;99389.42;2168765;82;21039;-84
2022/10/29 03:52:22;;;;;;;15.00;8.63;;;;;;;9.50;78.08;99391.35;2170280;81;20965;-84
2022/10/29 03:55:22;;;;;;;12.37;7.50;;;;;;;9.49;79.14;99388.28;2170308;81;21008;-84
2022/10/29 03:58:23;;;;;;;10.90;8.63;;;;;;;9.39;80.28;99387.60;2188685;80;21047;-84
2022/10/29 04:01:23;;;;;;;19.83;8.20;;;;;;;9.33;80.85;99397.86;2176748;81;20965;-84
2022/10/29 04:04:24;;;;;;;11.07;8.33;;;;;;;9.35;82.21;99389.67;2171448;81;21035;-84
2022/10/29 04:07:24;;;;;;;18.30;9.67;;;;;;;9.33;83.08;99393.08;2171803;81;20937;-84
2022/10/29 04:10:43;;;;;;;17.97;9.37;;;;;;;9.82;96.87;99386.06;2168038;82;21036;-85
2022/10/29 04:14:03;;;;;;;17.35;9.23;;;;;;;13.07;99.29;99373.00;2176101;82;21037;-85
2022/10/29 04:17:03;;;;;;;40.17;11.08;;;;;;;15.48;91.44;99369.16;2171461;81;21101;-83
2022/10/29 04:20:03;;;;;;;16.05;7.47;;;;;;;16.97;83.35;99362.31;2171004;81;20957;-83
2022/10/29 04:23:04;;;;;;;17.48;8.60;;;;;;;18.06;78.02;99350.51;2171147;81;20960;-84
2022/10/29 04:26:04;;;;;;;19.27;9.70;;;;;;;18.84;74.27;99345.67;2171223;81;20981;-84
2022/10/29 04:29:05;;;;;;;14.38;8.65;;;;;;;19.59;71.62;99347.68;2171129;81;20921;-84
2022/10/29 04:32:23;;;;;;;50.23;9.65;;;;;;;20.01;66.88;99335.95;2172644;82;21092;-83
2022/10/29 04:35:24;;;;;;;20.20;8.25;;;;;;;20.30;65.06;99332.28;2170431;81;21335;-83
2022/10/29 04:38:24;;;;;;;20.88;8.18;;;;;;;20.41;63.52;99332.10;2171004;81;21063;-84
2022/10/29 04:41:43;;;;;;;13.80;7.97;;;;;;;20.68;62.76;99333.31;2163655;82;21423;-83
2022/10/29 04:44:44;;;;;;;12.82;8.00;;;;;;;20.92;60.76;99332.81;2171268;81;21040;-83
2022/10/29 04:47:44;;;;;;;12.43;7.75;;;;;;;21.08;59.55;99335.12;2171385;81;20976;-83
2022/10/29 04:50:44;;;;;;;12.78;8.28;;;;;;;21.19;58.57;99331.31;2170965;81;21012;-83
2022/10/29 04:53:45;;;;;;;18.90;8.90;;;;;;;21.22;58.12;99327.28;2170886;81;21094;-82
2022/10/29 04:56:45;;;;;;;13.22;8.13;;;;;;;21.24;57.62;99321.48;2170988;81;20992;-83
2022/10/29 04:59:45;;;;;;;20.97;8.38;;;;;;;21.20;56.96;99339.69;2170320;82;21028;-82
2022/10/29 05:02:46;;;;;;;11.15;7.45;;;;;;;21.16;57.09;99328.72;2169966;81;21017;-81
2022/10/29 05:05:46;;;;;;;11.18;7.83;;;;;;;21.18;57.48;99328.69;2169750;81;20936;-82
2022/10/29 05:09:05;;;;;;;12.90;8.55;;;;;;;21.21;56.50;99336.58;2170643;82;21021;-82
2022/10/29 05:12:05;;;;;;;18.62;9.65;;;;;;;20.77;56.41;99343.73;2169664;81;20940;-81
2022/10/29 05:15:06;;;;;;;13.40;8.33;;;;;;;20.23;56.33;99343.91;2169541;81;20980;-82
2022/10/29 05:18:25;;;;;;;12.98;7.97;;;;;;;19.59;57.16;99342.39;2168894;82;21400;-82
2022/10/29 05:21:25;;;;;;;12.58;8.23;;;;;;;18.05;57.28;99338.19;2171219;81;20976;-82
2022/10/29 05:24:25;;;;;;;9.98;8.25;;;;;;;16.76;59.37;99341.34;2171508;81;20996;-81
2022/10/29 05:27:26;;;;;;;16.00;8.50;;;;;;;15.88;61.65;99342.45;2171635;81;20949;-82
2022/10/29 05:30:26;;;;;;;14.00;9.28;;;;;;;15.22;63.79;99354.67;2170730;81;20898;-82
2022/10/29 05:33:27;;;;;;;12.88;7.95;;;;;;;14.61;65.63;99345.30;2171287;81;20949;-82
2022/10/29 05:36:27;;;;;;;12.33;7.97;;;;;;;14.19;67.79;99353.39;2170451;81;20996;-82
2022/10/29 05:39:46;;;;;;;15.88;8.95;;;;;;;13.82;69.13;99344.38;2170935;82;21098;-83
2022/10/29 05:42:46;;;;;;;13.18;8.28;;;;;;;13.58;70.52;99351.64;2168767;81;20956;-83
2022/10/29 05:45:47;;;;;;;14.95;8.95;;;;;;;13.41;72.36;99355.00;2171070;81;21483;-84
2022/10/29 05:48:47;;;;;;;12.10;8.60;;;;;;;13.19;73.28;99360.05;2172279;81;20961;-84
2022/10/29 05:51:48;;;;;;;16.12;9.43;;;;;;;13.03;74.06;99369.47;2172740;81;21032;-83
2022/10/29 05:54:48;;;;;;;14.35;8.50;;;;;;;12.95;75.05;99366.28;2172492;81;20972;-83
2022/10/29 05:57:48;;;;;;;10.28;9.05;;;;;;;12.90;76.14;99367.55;2172137;81;21368;-83
2022/10/29 06:01:07;;;;;;;18.77;9.60;;;;;;;12.83;76.58;99369.66;2172054;82;21459;-84
2022/10/29 06:04:26;;;;;;;18.60;9.78;;;;;;;12.82;77.57;99373.56;2172164;82;21432;-83
2022/10/29 06:07:27;;;;;;;13.98;9.00;;;;;;;12.80;77.75;99367.43;2171387;81;20964;-83
2022/10/29 06:10:27;;;;;;;15.70;10.08;;;;;;;12.80;78.60;99370.05;2171065;81;21063;-83
2022/10/29 06:13:27;;;;;;;18.32;11.10;;;;;;;12.76;78.79;99371.33;2171480;81;20926;-82
2022/10/29 06:16:28;;;;;;;17.48;10.45;;;;;;;12.75;79.33;99383.98;2171121;81;21009;-83
2022/10/29 06:19:28;;;;;;;15.63;11.03;;;;;;;12.79;79.50;99386.63;2171299;81;21007;-82
2022/10/29 06:22:47;;;;;;;22.30;11.18;;;;;;;12.82;79.85;99382.30;2170831;82;21017;-83
2022/10/29 06:25:47;;;;;;;22.22;9.40;;;;;;;12.86;80.08;99383.22;2170889;81;20986;-83
2022/10/29 06:28:48;;;;;;;18.07;8.85;;;;;;;12.87;80.85;99387.59;2170634;81;21008;-83
2022/10/29 06:31:48;;;;;;;13.10;8.15;;;;;;;12.85;81.27;99388.89;2171556;81;21032;-85
2022/10/29 06:34:49;;;;;;;13.62;9.20;;;;;;;12.92;80.84;99400.31;2171312;81;21308;-84
2022/10/29 06:37:49;;;;;;;23.83;9.45;;;;;;;12.95;81.08;99395.11;2171688;81;21044;-84
2022/10/29 06:40:49;;;;;;;11.70;8.48;;;;;;;12.98;80.91;99397.77;2171859;81;21087;-84
2022/10/29 06:43:50;;;;;;;16.73;8.13;;;;;;;12.98;81.54;99395.14;2171537;81;20996;-83
2022/10/29 06:46:50;;;;;;;9.35;7.87;;;;;;;12.95;81.34;99400.35;2169972;82;21980;-83
2022/10/29 06:50:09;;;;;;;18.80;10.43;;;;;;;12.93;81.80;99404.70;2169572;82;21067;-81
2022/10/29 06:53:28;;;;;;;21.97;10.15;;;;;;;12.91;81.79;99405.11;2170850;82;21060;-83
2022/10/29 06:56:29;;;;;;;11.10;8.88;;;;;;;12.92;82.06;99412.11;2169518;81;21404;-83
2022/10/29 06:59:29;;;;;;;18.73;9.30;;;;;;;12.90;82.36;99412.09;2168619;80;21024;-82
2022/10/29 07:02:29;;;;;;;12.30;8.78;;;;;;;12.93;82.23;99419.98;2169332;81;20965;-83
2022/10/29 07:05:30;;;;;;;13.60;8.93;;;;;;;12.99;82.35;99423.11;2169525;81;20992;-82
2022/10/29 07:08:32;;;;;;;21.40;8.63;;;;;;;13.07;82.54;99425.42;2168816;81;20972;-82
2022/10/29 07:11:30;;;;;;;13.90;8.45;;;;;;;13.19;82.41;99430.83;2168509;81;20993;-82
2022/10/29 07:14:31;;;;;;;14.70;8.28;;;;;;;13.33;82.30;99429.66;2168871;80;20996;-83
2022/10/29 07:17:31;;;;;;;15.00;8.70;;;;;;;13.46;82.57;99431.97;2169497;81;20992;-83
2022/10/29 07:20:50;;;;;;;23.02;9.85;;;;;;;13.55;82.09;99435.55;2169085;82;21076;-83
2022/10/29 07:23:51;;;;;;;16.02;8.43;;;;;;;13.69;82.04;99435.67;2168328;81;21411;-83
2022/10/29 07:26:51;;;;;;;23.55;10.48;;;;;;;13.82;82.01;99434.91;2168616;81;21027;-82
2022/10/29 07:29:51;;;;;;;26.52;10.13;;;;;;;13.93;81.39;99442.47;2168195;81;20996;-83
2022/10/29 07:32:52;;;;;;;29.87;9.88;;;;;;;14.00;81.37;99432.47;2167850;81;20968;-83
2022/10/29 07:36:11;;;;;;;17.98;8.83;;;;;;;14.09;81.03;99432.09;2167682;82;21486;-82
2022/10/29 07:39:14;;;;;;;16.90;10.40;;;;;;;14.17;80.97;99440.89;2168010;82;21055;-81
2022/10/29 07:42:14;;;;;;;22.48;9.85;;;;;;;14.27;80.67;99447.53;2168775;81;20992;-82
2022/10/29 07:45:33;;;;;;;22.22;10.15;;;;;;;14.43;80.32;99454.22;2167988;82;21465;-81
2022/10/29 07:48:33;;;;;;;21.48;9.30;;;;;;;14.56;79.96;99452.98;2168934;82;20976;-82
2022/10/29 07:51:34;;;;;;;20.88;10.38;;;;;;;14.69;79.63;99451.30;2168764;81;21028;-81
2022/10/29 07:54:34;;;;;;;19.82;8.45;;;;;;;14.78;79.52;99449.19;2169776;81;21371;-80
2022/10/29 07:57:35;;;;;;;14.18;8.43;;;;;;;14.93;78.87;99447.94;2169572;81;21048;-81
2022/10/29 08:00:35;;;;;;;12.43;8.23;;;;;;;15.08;78.29;99441.86;2169843;81;20995;-82
2022/10/29 08:03:54;;;;;;;22.13;8.13;;;;;;;15.21;77.96;99437.95;2167050;82;20992;-80
2022/10/29 08:06:54;;;;;;;12.90;7.62;;;;;;;15.35;77.58;99439.73;2167811;81;21074;-82
2022/10/29 08:09:54;;;;;;;12.43;8.15;;;;;;;15.51;76.95;99449.41;2169600;81;21044;-82
2022/10/29 08:12:55;;;;;;;14.05;7.65;;;;;;;15.66;76.29;99444.67;2167111;81;21546;-82
2022/10/29 08:15:55;;;;;;;14.87;8.18;;;;;;;15.82;76.22;99438.53;2168232;81;21348;-82
2022/10/29 08:18:56;;;;;;;19.17;11.12;;;;;;;15.95;75.40;99440.29;2168027;81;21008;-83
2022/10/29 08:21:56;;;;;;;23.02;10.10;;;;;;;16.07;75.05;99430.19;2169071;81;20996;-81
2022/10/29 08:25:15;;;;;;;15.65;8.70;;;;;;;16.27;74.60;99432.36;2169544;82;21036;-80
2022/10/29 08:28:15;;;;;;;17.87;7.95;;;;;;;16.40;74.59;99431.89;2167114;81;21459;-81
2022/10/29 08:31:16;;;;;;;21.90;8.58;;;;;;;16.52;74.39;99427.94;2168588;81;21379;-82
2022/10/29 08:34:35;;;;;;;15.38;8.20;;;;;;;16.59;73.43;99423.09;2166856;82;21436;-81
2022/10/29 08:37:35;;;;;;;14.10;7.35;;;;;;;16.62;73.97;99429.67;2168817;81;20972;-80
2022/10/29 08:40:35;;;;;;;16.48;7.42;;;;;;;16.76;73.16;99430.53;2168381;81;21020;-81
2022/10/29 08:43:36;;;;;;;18.52;7.95;;;;;;;16.89;72.98;99433.99;2169146;81;21015;-81
2022/10/29 08:46:36;;;;;;;21.30;7.37;;;;;;;17.01;72.23;99425.15;2168330;82;21012;-80
2022/10/29 08:49:37;;;;;;;13.78;8.23;;;;;;;17.13;72.41;99435.20;2170533;81;21098;-82
2022/10/29 08:52:56;;;;;;;19.32;7.97;;;;;;;17.31;71.66;99428.06;2169043;82;21515;-80
2022/10/29 08:56:14;;;;;;;16.95;8.18;;;;;;;17.44;70.78;99420.53;2168905;82;21095;-81
2022/10/29 08:59:15;;;;;;;18.65;7.53;;;;;;;17.69;71.08;99421.27;2170399;81;21044;-80
2022/10/29 09:02:15;;;;;;;17.12;7.15;;;;;;;17.93;70.79;99419.75;2167943;81;21004;-81
2022/10/29 09:05:16;;;;;;;17.20;7.35;;;;;;;18.10;70.03;99419.15;2169591;81;21412;-81
2022/10/29 09:08:16;;;;;;;24.27;11.60;;;;;;;18.22;68.79;99407.62;2171348;81;20948;-81
2022/10/29 09:11:17;;;;;;;16.48;7.87;;;;;;;18.24;68.81;99413.77;2173018;81;21052;-84
2022/10/29 09:14:17;;;;;;;13.90;7.62;;;;;;;18.32;68.21;99415.88;2171607;81;21004;-83
2022/10/29 09:17:36;;;;;;;12.30;7.47;;;;;;;18.35;68.14;99421.13;2171964;82;20977;-82
2022/10/29 09:20:55;;;;;;;19.48;8.00;;;;;;;18.32;68.16;99411.04;2165414;82;21053;-84
2022/10/29 09:23:55;;;;;;;16.55;7.60;;;;;;;18.29;68.72;99419.88;2172416;81;21050;-83
2022/10/29 09:26:56;;;;;;;20.72;7.60;;;;;;;18.30;68.01;99418.11;2171723;81;20984;-83
2022/10/29 09:29:56;;;;;;;24.57;8.25;;;;;;;18.27;68.24;99417.69;2171417;81;20933;-83
2022/10/29 09:32:57;;;;;;;19.45;7.45;;;;;;;18.17;68.65;99417.77;2172675;81;20938;-82
2022/10/29 09:35:59;;;;;;;17.17;7.85;;;;;;;18.17;69.28;99421.73;2174272;81;20996;-82
2022/10/29 09:39:01;;;;;;;15.32;7.62;;;;;;;18.19;69.79;99415.54;2172372;82;21021;-84
2022/10/29 09:42:01;;;;;;;16.73;7.55;;;;;;;18.18;68.76;99419.52;2172645;82;20938;-83
2022/10/29 09:45:01;;;;;;;12.65;7.78;;;;;;;18.10;69.17;99415.63;2171299;81;21016;-83
2022/10/29 09:48:20;;;;;;;15.72;7.10;;;;;;;17.99;69.21;99426.73;2170325;82;20999;-82
2022/10/29 09:51:20;;;;;;;19.15;7.95;;;;;;;18.00;69.72;99412.20;2171542;81;20936;-82
2022/10/29 09:54:21;;;;;;;15.88;7.08;;;;;;;18.13;69.75;99419.12;2171333;81;20941;-83
2022/10/29 09:57:21;;;;;;;17.35;7.15;;;;;;;18.34;69.49;99414.55;2172358;81;20999;-84
2022/10/29 10:00:22;;;;;;;14.80;6.90;;;;;;;18.48;68.89;99414.39;2171142;81;20949;-84
2022/10/29 10:03:22;;;;;;;16.52;7.08;;;;;;;18.56;68.39;99400.20;2169125;81;21000;-81
2022/10/29 10:06:41;;;;;;;26.48;8.48;;;;;;;18.71;68.88;99394.77;2167822;82;21064;-84
2022/10/29 10:10:00;;;;;;;27.15;7.97;;;;;;;18.89;68.29;99384.39;2167745;82;21132;-84
2022/10/29 10:13:00;;;;;;;19.70;7.58;;;;;;;18.83;67.87;99395.50;2168635;81;20996;-83
2022/10/29 10:16:01;;;;;;;20.02;7.00;;;;;;;18.71;67.96;99390.80;2171555;81;20984;-82
2022/10/29 10:19:01;;;;;;;19.70;7.42;;;;;;;18.69;68.36;99391.70;2170367;81;21032;-82
2022/10/29 10:22:01;;;;;;;22.40;7.70;;;;;;;18.70;68.71;99384.20;2171431;81;22057;-80
2022/10/29 10:25:02;;;;;;;16.87;7.80;;;;;;;18.81;69.25;99386.71;2169471;81;20991;-80
2022/10/29 10:28:21;;;;;;;15.38;7.72;;;;;;;18.85;69.09;99386.66;2158774;82;21004;-81
2022/10/29 10:31:21;;;;;;;16.82;7.42;;;;;;;19.13;69.52;99388.95;2170709;81;21012;-81
2022/10/29 10:34:22;;;;;;;24.18;7.30;;;;;;;19.37;69.07;99376.69;2171565;81;20944;-81
2022/10/29 10:37:22;;;;;;;19.70;8.33;;;;;;;19.67;67.50;99373.59;2170503;81;20980;-81
2022/10/29 10:40:23;;;;;;;23.83;9.50;;;;;;;19.85;67.04;99364.45;2171540;81;21028;-80
2022/10/29 10:43:23;;;;;;;21.35;8.88;;;;;;;19.97;65.47;99366.92;2169449;81;21362;-80
2022/10/29 10:46:24;;;;;;;20.00;8.38;;;;;;;19.97;65.39;99362.08;2168791;81;20997;-79
2022/10/29 10:49:24;;;;;;;16.17;7.55;;;;;;;20.20;64.79;99362.52;2168783;81;20973;-80
2022/10/29 10:52:43;;;;;;;15.25;7.20;;;;;;;20.27;65.37;99364.16;2170052;82;21035;-80
2022/10/29 10:55:43;;;;;;;18.62;7.75;;;;;;;20.26;65.07;99370.81;2170287;81;21003;-80
2022/10/29 10:58:44;;;;;;;17.23;7.72;;;;;;;20.10;64.74;99370.22;2170836;81;20981;-83
2022/10/29 11:02:06;;;;;;;16.42;7.92;;;;;;;20.21;65.45;99372.67;2170222;82;21361;-83
2022/10/29 11:05:07;;;;;;;16.57;7.10;;;;;;;20.21;64.40;99373.55;2171377;82;20968;-82
2022/10/29 11:08:07;;;;;;;16.25;6.87;;;;;;;20.04;64.37;99387.56;2170303;81;20979;-82
2022/10/29 11:11:08;;;;;;;20.62;7.15;;;;;;;20.01;64.36;99384.97;2170873;81;20985;-83
2022/10/29 11:14:10;;;;;;;22.35;6.85;;;;;;;19.98;65.37;99390.31;2171292;81;20944;-83
2022/10/29 11:17:11;;;;;;;20.02;7.97;;;;;;;19.91;65.64;99388.64;2169699;82;20984;-83
2022/10/29 11:20:13;;;;;;;35.90;8.00;;;;;;;20.00;65.83;99396.47;2168530;81;20980;-81
2022/10/29 11:23:30;;;;;;;25.85;8.48;;;;;;;19.91;65.93;99391.30;2167318;82;21419;-81
2022/10/29 11:26:30;;;;;;;25.40;7.28;;;;;;;19.98;65.45;99376.62;2169358;81;20952;-81
2022/10/29 11:29:31;;;;;;;29.00;7.87;;;;;;;20.00;66.14;99373.94;2169248;81;21020;-80
2022/10/29 11:32:50;;;;;;;15.00;7.25;;;;;;;19.97;65.14;99374.00;2169107;82;21017;-81
2022/10/29 11:35:51;;;;;;;17.35;6.75;;;;;;;19.95;65.47;99369.17;2168933;81;20996;-81
2022/10/29 11:38:51;;;;;;;18.57;6.87;;;;;;;19.94;65.49;99360.77;2169518;81;21013;-83
2022/10/29 11:41:51;;;;;;;15.85;6.40;;;;;;;19.87;65.11;99363.98;2170005;81;21337;-82
2022/10/29 11:44:52;;;;;;;16.23;6.67;;;;;;;19.92;65.91;99366.09;2169477;81;20941;-82
2022/10/29 11:47:52;;;;;;;18.07;6.25;;;;;;;19.90;65.79;99366.57;2171012;81;21040;-82
2022/10/29 11:50:53;;;;;;;13.98;6.58;;;;;;;19.97;65.66;99370.90;2169172;81;20925;-82
2022/10/29 11:54:11;;;;;;;16.73;6.80;;;;;;;20.01;66.17;99363.77;2170088;82;21008;-82
2022/10/29 11:57:12;;;;;;;29.27;15.60;;;;;;;20.07;65.90;99363.66;2170495;81;21364;-82
2022/10/29 12:00:12;;;;;;;18.55;7.92;;;;;;;20.14;66.00;99367.06;2168938;81;21004;-82
2022/10/29 12:03:32;;;;;;;22.98;7.47;;;;;;;20.22;65.72;99366.02;2167666;82;21603;-81
2022/10/29 12:06:53;;;;;;;14.87;6.70;;;;;;;20.18;65.00;99357.70;2167817;82;21383;-81
2022/10/29 12:10:09;;;;;;;18.77;6.03;;;;;;;20.29;66.93;99349.55;2169805;82;21178;-81
2022/10/29 12:13:10;;;;;;;18.30;6.60;;;;;;;20.50;65.52;99345.17;2170460;81;20941;-81
2022/10/29 12:16:10;;;;;;;15.32;5.35;;;;;;;20.51;65.27;99354.00;2170887;81;20921;-82
2022/10/29 12:19:11;;;;;;;10.63;5.53;;;;;;;20.38;65.34;99347.17;2168529;81;21000;-81
2022/10/29 12:22:11;;;;;;;12.20;5.25;;;;;;;20.31;65.59;99341.11;2168033;81;21348;-81
2022/10/29 12:25:14;;;;;;;10.78;5.53;;;;;;;20.36;65.40;99348.07;2167857;81;20973;-82
2022/10/29 12:28:17;;;;;;;17.55;6.90;;;;;;;20.36;65.05;99352.50;2168581;81;21032;-81
2022/10/29 12:31:31;;;;;;;13.48;5.33;;;;;;;20.45;64.94;99350.16;2168712;82;21004;-79
2022/10/29 12:34:31;;;;;;;16.27;6.22;;;;;;;20.43;65.36;99351.51;2168418;81;21427;-80
2022/10/29 12:37:32;;;;;;;13.88;6.00;;;;;;;20.33;65.25;99344.16;2167607;81;20980;-80
2022/10/29 12:40:32;;;;;;;15.60;6.37;;;;;;;20.29;65.22;99349.09;2167977;81;21047;-79
2022/10/29 12:43:32;;;;;;;22.65;6.65;;;;;;;20.33;65.40;99337.98;2168128;81;20933;-80
2022/10/29 12:46:33;;;;;;;24.25;7.30;;;;;;;20.26;65.34;99331.92;2171468;81;21016;-79
2022/10/29 12:49:38;;;;;;;16.48;6.08;;;;;;;20.25;66.40;99342.11;2172747;81;21027;-80
2022/10/29 12:52:54;;;;;;;19.27;5.90;;;;;;;20.36;65.35;99338.79;2163748;82;21000;-81
2022/10/29 12:55:56;;;;;;;21.57;6.60;;;;;;;20.33;65.99;99341.50;2172546;81;20961;-81
2022/10/29 12:58:58;;;;;;;13.35;5.60;;;;;;;20.40;65.15;99341.41;2173245;82;21015;-81
2022/10/29 13:02:15;;;;;;;11.65;6.10;;;;;;;20.35;65.25;99346.32;2171470;82;21048;-80
2022/10/29 13:05:16;;;;;;;13.35;6.33;;;;;;;20.22;65.22;99338.19;2172615;81;20979;-81
2022/10/29 13:08:16;;;;;;;13.10;6.10;;;;;;;20.25;66.41;99335.93;2170610;81;20965;-81
2022/10/29 13:11:16;;;;;;;11.48;6.10;;;;;;;20.31;66.16;99334.48;2171710;81;20996;-82
2022/10/29 13:14:17;;;;;;;14.15;6.00;;;;;;;20.34;65.17;99333.97;2170522;81;20973;-81
2022/10/29 13:17:17;;;;;;;19.17;6.87;;;;;;;20.31;65.57;99327.41;2172233;81;21391;-82
2022/10/29 13:20:18;;;;;;;11.43;5.58;;;;;;;20.36;66.82;99324.20;2172830;81;20960;-82
2022/10/29 13:23:36;;;;;;;20.32;7.05;;;;;;;20.36;65.53;99323.34;2171590;82;21375;-82
2022/10/29 13:26:37;;;;;;;18.27;6.70;;;;;;;20.39;66.64;99315.77;2170217;81;20980;-81
2022/10/29 13:29:37;;;;;;;22.90;7.17;;;;;;;20.52;66.54;99319.95;2170356;81;20972;-81
2022/10/29 13:32:38;;;;;;;15.98;6.40;;;;;;;20.49;66.21;99326.19;2173088;81;21020;-81
2022/10/29 13:35:38;;;;;;;12.18;6.28;;;;;;;20.48;66.01;99319.59;2173441;81;20929;-82
2022/10/29 13:38:38;;;;;;;67.67;43.80;;;;;;;20.52;65.98;99319.50;2127003;83;20968;-82
2022/10/29 13:41:58;;;;;;;14.87;7.75;;;;;;;20.54;66.75;99319.47;2169527;82;21111;-81
2022/10/29 13:44:58;;;;;;;12.90;6.60;;;;;;;20.49;65.99;99324.87;2172084;81;20929;-79
2022/10/29 13:47:58;;;;;;;20.75;7.20;;;;;;;20.43;65.70;99324.13;2171021;81;21017;-81
2022/10/29 13:51:22;;;;;;;13.38;7.15;;;;;;;20.29;66.30;99316.41;2167017;82;20985;-81
2022/10/29 13:54:20;;;;;;;13.93;6.72;;;;;;;20.25;66.59;99326.20;2162380;82;21312;-81
2022/10/29 13:57:20;;;;;;;14.68;7.37;;;;;;;20.21;66.26;99321.86;2174243;81;20917;-81
2022/10/29 14:00:22;;;;;;;20.55;7.42;;;;;;;20.11;66.69;99322.94;2170974;81;20969;-81
2022/10/29 14:03:23;;;;;;;15.72;7.20;;;;;;;20.00;67.63;99322.27;2172426;81;20929;-82
2022/10/29 14:06:42;;;;;;;15.05;8.45;;;;;;;20.10;67.96;99323.84;2170952;82;20989;-82
2022/10/29 14:09:42;;;;;;;17.77;8.80;;;;;;;20.05;67.94;99324.39;2172343;81;20940;-82
2022/10/29 14:12:43;;;;;;;16.80;8.83;;;;;;;20.14;68.13;99316.26;2173572;81;21000;-82
2022/10/29 14:15:43;;;;;;;20.75;8.45;;;;;;;20.04;67.71;99315.56;2171236;81;20933;-81
2022/10/29 14:18:43;;;;;;;17.75;8.93;;;;;;;19.92;68.32;99314.44;2171333;81;21004;-82